Truro, Canada
Current Conditions -  °F | °C
As of 5:00 AM on Friday 24 Oct 2014 (Local Time) from CYHZ Reporting Station
Rain Showers Rain Showers  
Wind Chill: 54°   Ceiling: 300
Heat Index: 54°   Visibility: 5mi
Dew Point: 52°   Wind: 16mph
Humidity: 94%   Direction: 90°E
Pressure: 29.6"   Gusts: 23mph
Location:  45.37°N, 63.29°W
Report Text: CYHZ 240800Z 09014G20KT 5SM -SHRA BR BKN003 OVC035 12/11 A2960 RMK SF7SC1 SLP024 DENSITY ALT 500FT
Loading
Personal Weather Stations






























Interactive Weather Map
Tropical Storm Tracking
New forecast layout! Learn more

10-Day Weather Forecast

Advertisements
Track Severe Weather on mobile